Ashland, Kansas
Current Conditions -  °F | °C
As of 10:52 AM on Friday 19 Dec 2014 (Local Time) from KDDC Reporting Station
Overcast Overcast  
Wind Chill: -2°   Ceiling: 600
Heat Index:   Visibility: 7mi
Dew Point:   Wind: 10mph
Humidity: 89%   Direction: 220°SW
Pressure: 30.19"   Gusts: NA
Location:  37.19°N, 99.77°W
Report Text: KDDC 191652Z AUTO 22009KT 7SM OVC006 02/01 A3019 RMK AO2 SLP238 T00220006
Loading
Personal Weather Stations






























Interactive Weather Map New forecast layout! Learn more

10-Day Weather Forecast

Advertisements
Track Severe Weather on mobile